Time;durP1;ratioP1;P1;durP2;ratioP2;P2;SDS_P1;SDS_P2;PMS_P1;PMS_P2;Temp;Humidity;BMP_temperature;BMP_pressure;BME280_temperature;BME280_humidity;BME280_pressure;Samples;Min_cycle;Max_cycle;Signal;HPM_P1;HPM_P2
2023/12/01 05:50:59;;;;;;;25.30;13.40;;;;;;;2.78;100.00;98948.83;112295;1249;22981;-50
2023/12/01 05:53:26;;;;;;;24.50;13.20;;;;;;;2.79;100.00;98942.48;112207;1247;22498;-49
2023/12/01 05:55:56;;;;;;;22.60;12.50;;;;;;;2.82;100.00;98951.11;111046;1238;24210;-43
2023/12/01 05:58:23;;;;;;;20.60;12.80;;;;;;;2.84;100.00;98947.02;110540;1235;24109;-49
2023/12/01 06:00:50;;;;;;;20.10;12.70;;;;;;;2.87;100.00;98937.91;110803;1237;24281;-49
2023/12/01 06:03:19;;;;;;;21.40;12.70;;;;;;;2.89;100.00;98927.23;111656;1237;22421;-42
2023/12/01 06:05:48;;;;;;;19.60;11.00;;;;;;;2.91;100.00;98936.58;112774;1237;22500;-49
2023/12/01 06:08:15;;;;;;;20.50;13.30;;;;;;;2.93;100.00;98933.98;112984;1237;22376;-43
2023/12/01 06:10:42;;;;;;;19.40;11.90;;;;;;;2.93;100.00;98929.69;112980;1237;23040;-49
2023/12/01 06:13:09;;;;;;;23.60;11.90;;;;;;;2.94;100.00;98925.04;112689;1244;22514;-43
2023/12/01 06:15:36;;;;;;;16.90;10.70;;;;;;;2.95;100.00;98921.95;112597;1240;22712;-44
2023/12/01 06:18:03;;;;;;;20.20;11.30;;;;;;;2.97;100.00;98916.63;112066;1242;22400;-43
2023/12/01 06:20:31;;;;;;;18.70;10.30;;;;;;;2.99;100.00;98920.61;112758;1236;23219;-49
2023/12/01 06:23:01;;;;;;;18.20;10.00;;;;;;;3.01;100.00;98909.95;112691;1241;22411;-50
2023/12/01 06:25:30;;;;;;;17.10;9.90;;;;;;;3.05;100.00;98910.33;112375;1249;22427;-50
2023/12/01 06:28:03;;;;;;;20.70;9.70;;;;;;;3.08;100.00;98905.36;112826;1242;22539;-49
2023/12/01 06:30:35;;;;;;;15.70;10.20;;;;;;;3.13;100.00;98903.84;112895;1249;22236;-50
2023/12/01 06:33:05;;;;;;;14.90;9.20;;;;;;;3.17;100.00;98902.48;112273;1237;22626;-49
2023/12/01 06:35:32;;;;;;;14.50;9.90;;;;;;;3.20;100.00;98902.70;112427;1237;22426;-44
2023/12/01 06:37:59;;;;;;;16.70;9.80;;;;;;;3.23;100.00;98902.88;112203;1247;22402;-43
2023/12/01 06:40:26;;;;;;;13.10;7.90;;;;;;;3.26;100.00;98909.12;112049;1238;22458;-44
2023/12/01 06:42:56;;;;;;;14.60;8.70;;;;;;;3.28;100.00;98904.81;111658;1244;22589;-43
2023/12/01 06:45:27;;;;;;;15.70;9.40;;;;;;;3.32;100.00;98906.05;112725;1241;22393;-44
2023/12/01 06:47:59;;;;;;;12.30;8.20;;;;;;;3.36;100.00;98901.42;112582;1244;22873;-49
2023/12/01 06:50:26;;;;;;;14.60;9.20;;;;;;;3.40;100.00;98899.38;112598;1237;22299;-45
2023/12/01 06:52:54;;;;;;;20.40;10.90;;;;;;;3.43;100.00;98898.38;111683;1235;22961;-49
2023/12/01 06:55:21;;;;;;;14.50;8.60;;;;;;;3.47;100.00;98897.54;112777;1246;22364;-43
2023/12/01 06:57:49;;;;;;;15.10;8.70;;;;;;;3.51;100.00;98895.30;111847;1249;25386;-43
2023/12/01 07:00:36;;;;;;;13.40;8.80;;;;;;;3.55;100.00;98889.14;112061;1248;23370;-46
2023/12/01 07:03:04;;;;;;;16.00;9.80;;;;;;;3.59;100.00;98880.69;112292;1247;25413;-49
2023/12/01 07:05:34;;;;;;;16.10;9.90;;;;;;;3.63;100.00;98877.63;112465;1238;23087;-44
2023/12/01 07:08:01;;;;;;;15.10;10.30;;;;;;;3.67;100.00;98872.30;112906;1237;23108;-49
2023/12/01 07:10:28;;;;;;;18.80;11.80;;;;;;;3.71;100.00;98871.97;112537;1236;22517;-50
2023/12/01 07:12:55;;;;;;;18.20;11.60;;;;;;;3.76;100.00;98869.23;112892;1246;22398;-48
2023/12/01 07:15:25;;;;;;;16.50;10.60;;;;;;;3.81;100.00;98870.12;112494;1236;23099;-49
2023/12/01 07:17:55;;;;;;;;;;;;;;;3.86;100.00;98865.83;111399;1245;26086;-42
2023/12/01 07:20:24;;;;;;;26.30;16.30;;;;;;;3.91;100.00;98864.98;111543;1248;24130;-50
2023/12/01 07:22:53;;;;;;;23.00;13.80;;;;;;;3.96;100.00;98859.48;112509;1248;22662;-49
2023/12/01 07:25:21;;;;;;;18.30;12.80;;;;;;;4.02;100.00;98849.50;112767;1247;22452;-49
2023/12/01 07:27:56;;;;;;;18.00;12.30;;;;;;;4.09;100.00;98850.73;112247;1244;22403;-42
2023/12/01 07:30:24;;;;;;;19.70;12.30;;;;;;;4.14;100.00;98853.69;112904;1244;22296;-50
2023/12/01 07:32:52;;;;;;;25.10;14.30;;;;;;;4.19;100.00;98866.13;112936;1234;22396;-49
2023/12/01 07:35:19;;;;;;;21.90;11.80;;;;;;;4.24;100.00;98870.80;112713;1248;22429;-50
2023/12/01 07:37:47;;;;;;;19.10;14.20;;;;;;;4.28;100.00;98875.64;112910;1244;23739;-41
2023/12/01 07:40:19;;;;;;;21.00;13.30;;;;;;;4.32;100.00;98876.33;112491;1247;22504;-42
2023/12/01 07:42:53;;;;;;;25.50;17.20;;;;;;;4.38;100.00;98871.69;112645;1237;25427;-50
2023/12/01 07:45:21;;;;;;;24.50;18.10;;;;;;;4.43;100.00;98861.69;112969;1248;22392;-48
2023/12/01 07:47:49;;;;;;;24.40;17.60;;;;;;;4.48;100.00;98860.83;112931;1240;23614;-49
2023/12/01 07:50:17;;;;;;;28.20;20.50;;;;;;;4.54;100.00;98870.00;112943;1236;22537;-49
2023/12/01 07:52:44;;;;;;;26.20;20.00;;;;;;;4.59;100.00;98863.78;112869;1243;22512;-43
2023/12/01 07:55:11;;;;;;;36.40;23.20;;;;;;;4.65;100.00;98858.96;112651;1236;22221;-43
2023/12/01 07:57:38;;;;;;;32.10;22.90;;;;;;;4.71;100.00;98855.67;113066;1240;22342;-44
2023/12/01 08:00:06;;;;;;;39.90;27.50;;;;;;;4.77;100.00;98843.94;113066;1240;22832;-43
2023/12/01 08:02:33;;;;;;;36.10;25.30;;;;;;;4.84;100.00;98837.02;113089;1237;22410;-43
2023/12/01 08:05:00;;;;;;;40.00;26.50;;;;;;;4.90;100.00;98831.15;112318;1237;24182;-43
2023/12/01 08:07:27;;;;;;;38.30;25.70;;;;;;;4.96;100.00;98844.10;112636;1247;22512;-44
2023/12/01 08:09:54;;;;;;;32.90;23.10;;;;;;;5.01;100.00;98845.65;112647;1235;22518;-43
2023/12/01 08:12:33;;;;;;;28.90;18.90;;;;;;;5.07;100.00;98847.55;112764;1245;22535;-45
2023/12/01 08:15:01;;;;;;;32.30;19.00;;;;;;;5.11;100.00;98836.14;111745;1244;24369;-48
2023/12/01 08:17:46;;;;;;;28.00;17.70;;;;;;;5.17;100.00;98839.42;111879;1247;23090;-49
2023/12/01 08:20:18;;;;;;;23.80;15.20;;;;;;;5.22;100.00;98841.31;112816;1247;23222;-43
2023/12/01 08:22:51;;;;;;;18.70;12.40;;;;;;;5.27;100.00;98844.42;112083;1247;22497;-47
2023/12/01 08:25:31;;;;;;;17.70;11.60;;;;;;;5.31;100.00;98840.77;112619;1247;22409;-49
2023/12/01 08:27:59;;;;;;;17.80;12.30;;;;;;;5.34;100.00;98835.93;112642;1246;22466;-49
2023/12/01 08:30:26;;;;;;;13.90;10.20;;;;;;;5.38;100.00;98838.52;112984;1237;22271;-49
2023/12/01 08:32:54;;;;;;;13.50;8.30;;;;;;;5.42;100.00;98835.58;112594;1243;22880;-48
2023/12/01 08:35:24;;;;;;;13.90;9.00;;;;;;;5.44;100.00;98828.98;112510;1238;22497;-49
2023/12/01 08:37:51;;;;;;;16.10;8.80;;;;;;;5.47;100.00;98832.27;112846;1241;22383;-43
2023/12/01 08:40:18;;;;;;;16.00;9.40;;;;;;;5.50;100.00;98835.89;112878;1247;22248;-49
2023/12/01 08:42:45;;;;;;;14.50;7.50;;;;;;;5.52;100.00;98830.02;112820;1246;25891;-49
2023/12/01 08:45:15;;;;;;;12.60;8.20;;;;;;;5.55;100.00;98824.28;112321;1244;22540;-43
2023/12/01 08:47:43;;;;;;;12.20;7.00;;;;;;;5.59;100.00;98827.22;111568;1248;26571;-44
2023/12/01 08:50:13;;;;;;;15.00;7.50;;;;;;;5.62;100.00;98833.60;112577;1247;24255;-49
2023/12/01 08:52:40;;;;;;;17.00;7.90;;;;;;;5.65;100.00;98824.77;112097;1247;22543;-45
2023/12/01 08:55:08;;;;;;;15.20;8.00;;;;;;;5.70;100.00;98821.64;112210;1247;22538;-45
2023/12/01 08:57:35;;;;;;;19.20;10.30;;;;;;;5.74;100.00;98821.11;112597;1247;23045;-48
2023/12/01 09:00:06;;;;;;;19.90;10.10;;;;;;;5.79;100.00;98816.41;111726;1234;23289;-48
2023/12/01 09:07:26;;;;;;;18.40;10.50;;;;;;;5.94;100.00;98804.61;112324;1235;22906;-43
2023/12/01 09:10:27;;;;;;;18.80;10.70;;;;;;;6.00;100.00;98806.13;112712;1247;22826;-43
2023/12/01 09:18:38;;;;;;;15.70;9.10;;;;;;;6.21;100.00;98805.50;112869;1247;23063;-47
2023/12/01 09:35:23;;;;;;;19.30;11.70;;;;;;;6.42;100.00;98806.41;113037;1247;22793;-49
2023/12/01 09:43:00;;;;;;;19.50;9.70;;;;;;;6.53;100.00;98817.76;112044;1247;22386;-49
2023/12/01 09:46:16;;;;;;;;;;;;;;;6.60;100.00;98811.13;112536;1247;22444;-49
2023/12/01 10:17:04;;;;;;;18.30;9.10;;;;;;;7.14;100.00;98794.70;109493;1279;22447;-43
2023/12/01 10:19:33;;;;;;;14.00;8.90;;;;;;;7.14;100.00;98794.53;109058;1280;22701;-44
2023/12/01 10:22:07;;;;;;;16.00;9.20;;;;;;;7.16;100.00;98793.80;109123;1282;22470;-42
2023/12/01 10:24:39;;;;;;;17.70;9.10;;;;;;;7.23;100.00;98790.80;109449;1280;22323;-43
2023/12/01 10:27:08;;;;;;;27.80;14.20;;;;;;;7.30;100.00;98781.00;109240;1281;22214;-44
2023/12/01 10:29:38;;;;;;;30.10;15.40;;;;;;;7.40;100.00;98775.86;108850;1282;22727;-50
2023/12/01 10:32:11;;;;;;;23.50;13.10;;;;;;;7.52;100.00;98772.09;109386;1269;22521;-50
2023/12/01 10:34:38;;;;;;;17.80;10.90;;;;;;;7.61;100.00;98776.31;109309;1280;22391;-50
2023/12/01 10:37:11;;;;;;;17.60;10.20;;;;;;;7.65;100.00;98774.02;109289;1281;22509;-50
2023/12/01 10:39:38;;;;;;;;;;;;;;;7.62;100.00;98770.05;109328;1280;22571;-49
2023/12/01 10:42:11;;;;;;;14.40;8.10;;;;;;;7.56;100.00;98761.28;109064;1282;22579;-50
2023/12/01 10:45:08;;;;;;;24.60;13.00;;;;;;;7.52;100.00;98758.89;108754;1285;23513;-48
2023/12/01 10:47:48;;;;;;;27.60;13.40;;;;;;;7.51;100.00;98761.00;109245;1289;22878;-44
2023/12/01 10:50:16;;;;;;;20.10;10.70;;;;;;;7.47;100.00;98759.31;108731;1288;22305;-50
2023/12/01 10:52:46;;;;;;;14.90;9.70;;;;;;;7.42;100.00;98761.27;109483;1280;23274;-49
2023/12/01 10:55:14;;;;;;;16.10;9.50;;;;;;;7.39;100.00;98763.91;109008;1285;22414;-49
2023/12/01 10:57:43;;;;;;;21.90;8.90;;;;;;;7.39;100.00;98757.66;108835;1285;22247;-43
2023/12/01 11:00:19;;;;;;;14.70;7.40;;;;;;;7.40;100.00;98751.91;109488;1288;22503;-44
2023/12/01 11:02:52;;;;;;;18.80;9.70;;;;;;;7.38;100.00;98750.21;109243;1280;22404;-52
2023/12/01 11:05:30;;;;;;;15.00;7.50;;;;;;;7.32;100.00;98742.83;109452;1270;22515;-50
2023/12/01 11:08:17;;;;;;;14.60;8.10;;;;;;;7.24;100.00;98751.24;109475;1280;22468;-49
2023/12/01 11:11:03;;;;;;;16.00;9.50;;;;;;;7.14;100.00;98766.95;109207;1282;22969;-44
2023/12/01 11:13:33;;;;;;;14.80;7.50;;;;;;;7.07;100.00;98778.81;109126;1289;22415;-44
2023/12/01 11:16:01;;;;;;;15.30;8.60;;;;;;;7.04;100.00;98781.45;108914;1282;22392;-50
2023/12/01 11:18:28;;;;;;;23.30;10.50;;;;;;;6.99;100.00;98786.86;109842;1273;23038;-50
2023/12/01 11:20:55;;;;;;;16.00;10.10;;;;;;;6.98;100.00;98791.91;108948;1272;22526;-43
2023/12/01 11:23:23;;;;;;;13.40;8.20;;;;;;;6.97;100.00;98791.07;109434;1272;23280;-43
2023/12/01 11:25:53;;;;;;;14.10;8.60;;;;;;;6.95;100.00;98792.11;109839;1273;22420;-43
2023/12/01 11:33:43;;;;;;;13.70;7.60;;;;;;;6.90;100.00;98807.58;110075;1269;22315;-50
2023/12/01 11:36:47;;;;;;;14.80;8.10;;;;;;;6.88;100.00;98813.83;109918;1272;23004;-50
2023/12/01 11:39:16;;;;;;;16.90;8.50;;;;;;;6.83;100.00;98813.19;110041;1271;22418;-50
2023/12/01 11:41:46;;;;;;;12.30;7.70;;;;;;;6.80;100.00;98811.31;109321;1272;26581;-50
2023/12/01 11:44:17;;;;;;;15.80;7.90;;;;;;;6.76;100.00;98805.27;110009;1272;22989;-49
2023/12/01 11:46:45;;;;;;;15.80;7.90;;;;;;;6.72;100.00;98807.91;110129;1270;22426;-50
2023/12/01 11:49:14;;;;;;;12.60;8.30;;;;;;;6.68;100.00;98816.78;110139;1271;23124;-50
2023/12/01 11:51:43;;;;;;;10.90;7.60;;;;;;;6.64;100.00;98830.84;109507;1266;24215;-50
2023/12/01 11:54:11;;;;;;;13.80;8.20;;;;;;;6.58;100.00;98842.84;108648;1266;22653;-49
2023/12/01 11:56:39;;;;;;;11.70;7.40;;;;;;;6.52;100.00;98851.89;108211;1277;22394;-50
2023/12/01 11:59:08;;;;;;;18.90;8.60;;;;;;;6.47;100.00;98852.45;109994;1275;22531;-50
2023/12/01 12:01:37;;;;;;;11.30;7.30;;;;;;;6.45;100.00;98843.11;107980;1258;23446;-50
2023/12/01 12:04:05;;;;;;;10.90;7.70;;;;;;;6.45;100.00;98846.92;110199;1271;22758;-51
2023/12/01 12:06:32;;;;;;;15.50;8.30;;;;;;;6.46;100.00;98858.69;110093;1270;22999;-50
2023/12/01 12:09:01;;;;;;;12.70;7.70;;;;;;;6.46;100.00;98863.71;110151;1272;22270;-50
2023/12/01 12:11:29;;;;;;;16.30;9.10;;;;;;;6.44;100.00;98864.77;110161;1277;23107;-51
2023/12/01 12:13:56;;;;;;;14.60;7.90;;;;;;;6.42;100.00;98869.11;109611;1270;22717;-49
2023/12/01 12:16:23;;;;;;;13.40;8.00;;;;;;;6.37;100.00;98862.36;110165;1266;23142;-50
2023/12/01 12:18:51;;;;;;;15.00;8.80;;;;;;;6.32;100.00;98852.70;109832;1266;23655;-50
2023/12/01 12:21:23;;;;;;;13.40;8.20;;;;;;;6.26;100.00;98860.88;109456;1272;22610;-50
2023/12/01 12:23:50;;;;;;;12.90;8.20;;;;;;;6.21;100.00;98869.91;109999;1277;22301;-50
2023/12/01 12:26:18;;;;;;;13.30;7.40;;;;;;;6.17;100.00;98883.95;109256;1271;22582;-42
2023/12/01 12:28:52;;;;;;;14.60;9.10;;;;;;;6.10;100.00;98895.05;109820;1270;22520;-49
2023/12/01 12:31:29;;;;;;;10.30;7.60;;;;;;;6.04;100.00;98903.57;109487;1275;22427;-44
2023/12/01 12:33:57;;;;;;;12.70;8.10;;;;;;;5.97;100.00;98904.30;110075;1277;22401;-43
2023/12/01 12:36:26;;;;;;;14.80;9.40;;;;;;;5.94;100.00;98911.75;109385;1276;22416;-44
2023/12/01 12:38:54;;;;;;;12.60;7.40;;;;;;;5.87;100.00;98927.13;108623;1277;22295;-44
2023/12/01 12:41:29;;;;;;;12.70;8.10;;;;;;;5.82;100.00;98924.20;109271;1273;22323;-43
2023/12/01 12:44:04;;;;;;;14.80;8.70;;;;;;;5.77;100.00;98917.98;109823;1270;23976;-42
2023/12/01 12:46:32;;;;;;;11.70;8.20;;;;;;;5.74;100.00;98912.98;110139;1277;22317;-43
2023/12/01 12:49:03;;;;;;;17.30;9.60;;;;;;;5.73;100.00;98918.67;110137;1277;22391;-52
2023/12/01 12:51:30;;;;;;;15.30;8.50;;;;;;;5.70;100.00;98924.23;110183;1276;22409;-52
2023/12/01 12:53:57;;;;;;;10.30;8.00;;;;;;;5.69;100.00;98929.95;110149;1277;22891;-52
2023/12/01 12:56:24;;;;;;;13.20;9.00;;;;;;;5.67;100.00;98927.52;109953;1272;22536;-49
2023/12/01 12:58:52;;;;;;;13.50;8.60;;;;;;;5.63;100.00;98922.70;110048;1260;22453;-50
2023/12/01 13:01:19;;;;;;;13.20;8.40;;;;;;;5.59;100.00;98913.88;109920;1269;22810;-50
2023/12/01 13:03:46;;;;;;;13.00;7.80;;;;;;;5.57;100.00;98908.86;110124;1277;22383;-50
2023/12/01 13:06:15;;;;;;;16.40;9.40;;;;;;;5.57;100.00;98924.27;110050;1271;22261;-50
2023/12/01 13:08:42;;;;;;;14.80;8.70;;;;;;;5.59;100.00;98919.77;110146;1272;22474;-50
2023/12/01 13:11:09;;;;;;;16.20;8.80;;;;;;;5.59;100.00;98924.77;110137;1277;22307;-50
2023/12/01 13:13:38;;;;;;;21.10;11.50;;;;;;;5.56;100.00;98929.96;110072;1277;23644;-50
2023/12/01 13:16:05;;;;;;;15.30;10.30;;;;;;;5.50;100.00;98931.70;110093;1263;22882;-49
2023/12/01 13:18:34;;;;;;;18.70;10.10;;;;;;;5.41;100.00;98927.55;109970;1277;22355;-50
2023/12/01 13:21:01;;;;;;;19.20;10.90;;;;;;;5.33;100.00;98934.83;110108;1277;23204;-49
2023/12/01 13:23:28;;;;;;;12.60;8.60;;;;;;;5.25;100.00;98958.00;110129;1272;22299;-50
2023/12/01 13:25:55;;;;;;;14.60;9.30;;;;;;;5.17;100.00;98965.09;109599;1276;23310;-50
2023/12/01 13:28:22;;;;;;;12.60;9.00;;;;;;;5.08;100.00;98960.07;110215;1277;23002;-50
2023/12/01 13:30:49;;;;;;;16.50;9.60;;;;;;;5.00;100.00;98965.59;110226;1276;22292;-50
2023/12/01 13:33:16;;;;;;;14.30;10.30;;;;;;;4.93;100.00;98967.81;110204;1277;22470;-47
2023/12/01 13:35:43;;;;;;;16.90;10.20;;;;;;;4.86;100.00;98966.08;110190;1277;23036;-44
2023/12/01 13:38:10;;;;;;;22.80;13.90;;;;;;;4.79;100.00;98950.17;110115;1272;23215;-44
2023/12/01 13:40:38;;;;;;;16.90;11.30;;;;;;;4.75;100.00;98952.41;109967;1270;22360;-44
2023/12/01 13:43:07;;;;;;;16.30;10.30;;;;;;;4.73;100.00;98946.70;109912;1270;22411;-43
2023/12/01 13:45:38;;;;;;;18.80;9.90;;;;;;;4.71;100.00;98946.89;110158;1273;22495;-43
2023/12/01 13:48:06;;;;;;;18.70;10.80;;;;;;;4.68;100.00;98961.89;109719;1270;22839;-44
2023/12/01 13:50:35;;;;;;;16.10;10.00;;;;;;;4.65;100.00;98968.47;109313;1271;23051;-44
2023/12/01 13:53:02;;;;;;;16.40;11.20;;;;;;;4.63;100.00;98975.86;110099;1269;22374;-44
2023/12/01 13:55:29;;;;;;;16.70;10.60;;;;;;;4.61;100.00;98960.67;109442;1269;22576;-44
2023/12/01 13:57:56;;;;;;;14.60;9.80;;;;;;;4.60;100.00;98970.00;109048;1276;23333;-49
2023/12/01 14:00:23;;;;;;;16.50;10.70;;;;;;;4.58;100.00;98984.50;109765;1266;22351;-49
2023/12/01 14:02:52;;;;;;;16.10;11.30;;;;;;;4.57;100.00;98994.52;109027;1273;22525;-48
2023/12/01 14:05:20;;;;;;;26.80;18.20;;;;;;;4.54;100.00;98997.61;109457;1276;23091;-49
2023/12/01 14:07:49;;;;;;;21.00;12.80;;;;;;;4.51;100.00;98997.26;109548;1276;22319;-50
2023/12/01 14:10:18;;;;;;;18.90;12.30;;;;;;;4.46;100.00;99004.31;108713;1276;22411;-50
2023/12/01 14:12:45;;;;;;;19.70;11.50;;;;;;;4.42;100.00;99012.76;110305;1276;22370;-50
2023/12/01 14:15:12;;;;;;;19.60;11.30;;;;;;;4.36;100.00;99016.53;110179;1277;23086;-50
2023/12/01 14:17:39;;;;;;;18.30;12.00;;;;;;;4.32;100.00;99007.36;110291;1276;22393;-50
2023/12/01 14:20:06;;;;;;;20.70;12.20;;;;;;;4.31;100.00;99013.05;110287;1276;23004;-50
2023/12/01 14:22:33;;;;;;;23.70;16.70;;;;;;;4.31;100.00;99021.87;110014;1276;22287;-44
2023/12/01 14:25:01;;;;;;;35.60;21.20;;;;;;;4.30;100.00;99021.52;109490;1276;22298;-42
2023/12/01 14:27:28;;;;;;;34.90;18.70;;;;;;;4.28;100.00;99020.98;108048;1267;25543;-42
2023/12/01 14:29:55;;;;;;;28.40;17.30;;;;;;;4.27;100.00;99021.48;108937;1276;22463;-43
2023/12/01 14:32:22;;;;;;;30.20;19.90;;;;;;;4.26;100.00;99018.38;107261;1260;23861;-43
2023/12/01 14:34:49;;;;;;;27.60;15.30;;;;;;;4.24;100.00;99020.45;110283;1276;23214;-43
2023/12/01 14:37:18;;;;;;;19.90;13.40;;;;;;;4.23;100.00;99017.67;110362;1264;22292;-49
2023/12/01 14:39:45;;;;;;;17.10;12.70;;;;;;;4.23;100.00;99007.84;109529;1276;22531;-44
